sensor_id;sensor_type;location;lat;lon;timestamp;P1;durP1;ratioP1;P2;durP2;ratioP2
20986;SDS011;10652;50.306;8.570;2023-08-17T00:00:54;0.98;;;0.80;;
20986;SDS011;10652;50.306;8.570;2023-08-17T00:04:56;2.38;;;0.68;;
20986;SDS011;10652;50.306;8.570;2023-08-17T00:08:58;1.88;;;0.90;;
20986;SDS011;10652;50.306;8.570;2023-08-17T00:13:00;3.78;;;0.52;;
20986;SDS011;10652;50.306;8.570;2023-08-17T00:17:04;0.93;;;0.63;;
20986;SDS011;10652;50.306;8.570;2023-08-17T00:21:06;3.03;;;1.00;;
20986;SDS011;10652;50.306;8.570;2023-08-17T00:25:08;1.63;;;0.80;;
20986;SDS011;10652;50.306;8.570;2023-08-17T00:29:10;1.70;;;1.00;;
20986;SDS011;10652;50.306;8.570;2023-08-17T00:33:12;1.38;;;0.70;;
20986;SDS011;10652;50.306;8.570;2023-08-17T00:37:15;1.90;;;0.80;;
20986;SDS011;10652;50.306;8.570;2023-08-17T00:41:17;1.65;;;1.15;;
20986;SDS011;10652;50.306;8.570;2023-08-17T00:45:19;1.58;;;1.23;;
20986;SDS011;10652;50.306;8.570;2023-08-17T00:49:22;3.45;;;1.27;;
20986;SDS011;10652;50.306;8.570;2023-08-17T00:53:25;1.50;;;1.30;;
20986;SDS011;10652;50.306;8.570;2023-08-17T00:57:29;3.42;;;1.40;;
20986;SDS011;10652;50.306;8.570;2023-08-17T01:01:31;2.47;;;1.33;;
20986;SDS011;10652;50.306;8.570;2023-08-17T01:05:34;1.20;;;1.10;;
20986;SDS011;10652;50.306;8.570;2023-08-17T01:09:36;40.22;;;2.10;;
20986;SDS011;10652;50.306;8.570;2023-08-17T01:13:44;1.30;;;1.20;;
20986;SDS011;10652;50.306;8.570;2023-08-17T01:17:56;2.45;;;1.23;;
20986;SDS011;10652;50.306;8.570;2023-08-17T01:22:04;3.65;;;1.30;;
20986;SDS011;10652;50.306;8.570;2023-08-17T01:26:07;4.28;;;1.45;;
20986;SDS011;10652;50.306;8.570;2023-08-17T01:30:10;2.72;;;1.48;;
20986;SDS011;10652;50.306;8.570;2023-08-17T01:38:22;7.60;;;1.48;;
20986;SDS011;10652;50.306;8.570;2023-08-17T01:42:25;44.67;;;2.60;;
20986;SDS011;10652;50.306;8.570;2023-08-17T01:46:33;73.07;;;2.50;;
20986;SDS011;10652;50.306;8.570;2023-08-17T01:50:36;30.48;;;2.00;;
20986;SDS011;10652;50.306;8.570;2023-08-17T01:54:38;42.33;;;2.15;;
20986;SDS011;10652;50.306;8.570;2023-08-17T01:58:40;37.75;;;2.50;;
20986;SDS011;10652;50.306;8.570;2023-08-17T02:02:43;15.82;;;1.65;;
20986;SDS011;10652;50.306;8.570;2023-08-17T02:06:46;30.02;;;2.50;;
20986;SDS011;10652;50.306;8.570;2023-08-17T02:10:48;9.55;;;2.20;;
20986;SDS011;10652;50.306;8.570;2023-08-17T02:14:50;7.45;;;2.90;;
20986;SDS011;10652;50.306;8.570;2023-08-17T02:18:52;3.17;;;2.40;;
20986;SDS011;10652;50.306;8.570;2023-08-17T02:22:55;4.20;;;2.60;;
20986;SDS011;10652;50.306;8.570;2023-08-17T02:26:57;2.95;;;2.05;;
20986;SDS011;10652;50.306;8.570;2023-08-17T02:31:00;3.47;;;2.13;;
20986;SDS011;10652;50.306;8.570;2023-08-17T02:35:02;4.75;;;2.20;;
20986;SDS011;10652;50.306;8.570;2023-08-17T02:39:04;4.15;;;2.17;;
20986;SDS011;10652;50.306;8.570;2023-08-17T02:43:07;2.80;;;2.20;;
20986;SDS011;10652;50.306;8.570;2023-08-17T02:47:09;2.25;;;2.05;;
20986;SDS011;10652;50.306;8.570;2023-08-17T02:51:11;3.45;;;2.15;;
20986;SDS011;10652;50.306;8.570;2023-08-17T02:55:14;2.72;;;2.03;;
20986;SDS011;10652;50.306;8.570;2023-08-17T02:59:16;2.92;;;2.17;;
20986;SDS011;10652;50.306;8.570;2023-08-17T03:03:18;6.20;;;2.40;;
20986;SDS011;10652;50.306;8.570;2023-08-17T03:07:20;2.90;;;2.22;;
20986;SDS011;10652;50.306;8.570;2023-08-17T03:11:22;3.55;;;2.30;;
20986;SDS011;10652;50.306;8.570;2023-08-17T03:15:24;4.72;;;2.90;;
20986;SDS011;10652;50.306;8.570;2023-08-17T03:19:26;4.60;;;2.60;;
20986;SDS011;10652;50.306;8.570;2023-08-17T03:23:29;4.63;;;2.50;;
20986;SDS011;10652;50.306;8.570;2023-08-17T03:27:31;6.22;;;3.60;;
20986;SDS011;10652;50.306;8.570;2023-08-17T03:31:34;4.90;;;3.38;;
20986;SDS011;10652;50.306;8.570;2023-08-17T03:35:36;4.25;;;2.95;;
20986;SDS011;10652;50.306;8.570;2023-08-17T03:39:39;4.25;;;3.42;;
20986;SDS011;10652;50.306;8.570;2023-08-17T03:43:41;6.45;;;3.25;;
20986;SDS011;10652;50.306;8.570;2023-08-17T03:47:43;7.40;;;3.33;;
20986;SDS011;10652;50.306;8.570;2023-08-17T03:51:45;13.60;;;3.58;;
20986;SDS011;10652;50.306;8.570;2023-08-17T03:55:48;6.28;;;3.40;;
20986;SDS011;10652;50.306;8.570;2023-08-17T03:59:50;5.38;;;3.13;;
20986;SDS011;10652;50.306;8.570;2023-08-17T04:03:53;5.07;;;2.88;;
20986;SDS011;10652;50.306;8.570;2023-08-17T04:07:55;2.63;;;2.33;;
20986;SDS011;10652;50.306;8.570;2023-08-17T04:11:57;3.58;;;2.42;;
20986;SDS011;10652;50.306;8.570;2023-08-17T04:15:59;3.03;;;2.47;;
20986;SDS011;10652;50.306;8.570;2023-08-17T04:20:02;3.20;;;2.28;;
20986;SDS011;10652;50.306;8.570;2023-08-17T04:24:04;4.18;;;2.10;;
20986;SDS011;10652;50.306;8.570;2023-08-17T04:28:06;8.35;;;2.67;;
20986;SDS011;10652;50.306;8.570;2023-08-17T04:32:13;5.95;;;2.05;;
20986;SDS011;10652;50.306;8.570;2023-08-17T04:36:16;5.05;;;1.80;;
20986;SDS011;10652;50.306;8.570;2023-08-17T04:40:18;7.15;;;2.20;;
20986;SDS011;10652;50.306;8.570;2023-08-17T04:44:22;8.27;;;2.15;;
20986;SDS011;10652;50.306;8.570;2023-08-17T04:48:24;8.52;;;1.88;;
20986;SDS011;10652;50.306;8.570;2023-08-17T04:52:27;3.95;;;1.60;;
20986;SDS011;10652;50.306;8.570;2023-08-17T04:56:29;3.95;;;1.55;;
20986;SDS011;10652;50.306;8.570;2023-08-17T05:00:31;4.30;;;1.90;;
20986;SDS011;10652;50.306;8.570;2023-08-17T05:04:34;4.20;;;1.90;;
20986;SDS011;10652;50.306;8.570;2023-08-17T05:08:37;4.78;;;2.00;;
20986;SDS011;10652;50.306;8.570;2023-08-17T05:12:39;5.60;;;1.90;;
20986;SDS011;10652;50.306;8.570;2023-08-17T05:16:42;5.07;;;1.90;;
20986;SDS011;10652;50.306;8.570;2023-08-17T05:20:44;5.68;;;1.80;;
20986;SDS011;10652;50.306;8.570;2023-08-17T05:24:47;5.50;;;2.30;;
20986;SDS011;10652;50.306;8.570;2023-08-17T05:28:50;2.08;;;1.45;;
20986;SDS011;10652;50.306;8.570;2023-08-17T05:32:52;5.15;;;2.08;;
20986;SDS011;10652;50.306;8.570;2023-08-17T05:36:55;4.68;;;1.70;;
20986;SDS011;10652;50.306;8.570;2023-08-17T05:40:57;6.68;;;1.92;;
20986;SDS011;10652;50.306;8.570;2023-08-17T05:45:00;5.03;;;2.13;;
20986;SDS011;10652;50.306;8.570;2023-08-17T05:49:02;3.17;;;2.25;;
20986;SDS011;10652;50.306;8.570;2023-08-17T05:53:04;4.43;;;2.47;;
20986;SDS011;10652;50.306;8.570;2023-08-17T05:57:06;3.13;;;2.60;;
20986;SDS011;10652;50.306;8.570;2023-08-17T06:01:09;3.05;;;2.25;;
20986;SDS011;10652;50.306;8.570;2023-08-17T06:05:13;3.70;;;2.60;;
20986;SDS011;10652;50.306;8.570;2023-08-17T06:09:15;2.85;;;2.20;;
20986;SDS011;10652;50.306;8.570;2023-08-17T06:13:17;4.85;;;2.60;;
20986;SDS011;10652;50.306;8.570;2023-08-17T06:17:19;2.95;;;2.65;;
20986;SDS011;10652;50.306;8.570;2023-08-17T06:21:21;4.05;;;3.10;;
20986;SDS011;10652;50.306;8.570;2023-08-17T06:25:23;3.58;;;2.80;;
20986;SDS011;10652;50.306;8.570;2023-08-17T06:29:27;3.20;;;2.70;;
20986;SDS011;10652;50.306;8.570;2023-08-17T06:33:29;4.70;;;3.15;;
20986;SDS011;10652;50.306;8.570;2023-08-17T06:37:31;3.10;;;2.80;;
20986;SDS011;10652;50.306;8.570;2023-08-17T06:41:34;4.00;;;3.10;;
20986;SDS011;10652;50.306;8.570;2023-08-17T06:45:36;3.05;;;2.60;;
20986;SDS011;10652;50.306;8.570;2023-08-17T06:49:38;3.65;;;2.55;;
20986;SDS011;10652;50.306;8.570;2023-08-17T06:53:40;2.67;;;2.47;;
20986;SDS011;10652;50.306;8.570;2023-08-17T06:57:43;4.40;;;2.45;;
20986;SDS011;10652;50.306;8.570;2023-08-17T07:01:45;3.10;;;2.05;;
20986;SDS011;10652;50.306;8.570;2023-08-17T07:05:47;3.42;;;2.13;;
20986;SDS011;10652;50.306;8.570;2023-08-17T07:09:50;2.00;;;1.70;;
20986;SDS011;10652;50.306;8.570;2023-08-17T07:13:52;3.20;;;1.80;;
20986;SDS011;10652;50.306;8.570;2023-08-17T07:17:54;3.42;;;1.70;;
20986;SDS011;10652;50.306;8.570;2023-08-17T07:21:56;3.42;;;1.70;;
20986;SDS011;10652;50.306;8.570;2023-08-17T07:25:58;3.40;;;1.60;;
20986;SDS011;10652;50.306;8.570;2023-08-17T07:30:00;2.45;;;1.58;;
20986;SDS011;10652;50.306;8.570;2023-08-17T07:34:03;1.65;;;1.55;;
20986;SDS011;10652;50.306;8.570;2023-08-17T07:38:07;2.63;;;1.63;;
20986;SDS011;10652;50.306;8.570;2023-08-17T07:42:10;2.13;;;1.67;;
20986;SDS011;10652;50.306;8.570;2023-08-17T07:46:12;3.08;;;1.67;;
20986;SDS011;10652;50.306;8.570;2023-08-17T07:50:15;2.30;;;1.60;;
20986;SDS011;10652;50.306;8.570;2023-08-17T07:54:17;2.65;;;1.70;;
20986;SDS011;10652;50.306;8.570;2023-08-17T07:58:19;2.15;;;1.50;;
20986;SDS011;10652;50.306;8.570;2023-08-17T08:02:21;1.50;;;1.30;;
20986;SDS011;10652;50.306;8.570;2023-08-17T08:06:23;2.30;;;1.40;;
20986;SDS011;10652;50.306;8.570;2023-08-17T08:10:26;1.70;;;1.60;;
20986;SDS011;10652;50.306;8.570;2023-08-17T08:14:29;3.10;;;2.00;;
20986;SDS011;10652;50.306;8.570;2023-08-17T08:18:31;2.13;;;2.00;;
20986;SDS011;10652;50.306;8.570;2023-08-17T08:22:33;1.90;;;1.30;;
20986;SDS011;10652;50.306;8.570;2023-08-17T08:26:35;3.33;;;1.73;;
20986;SDS011;10652;50.306;8.570;2023-08-17T08:30:37;1.48;;;1.38;;
20986;SDS011;10652;50.306;8.570;2023-08-17T08:34:39;1.58;;;1.40;;
20986;SDS011;10652;50.306;8.570;2023-08-17T08:38:41;1.27;;;1.17;;
20986;SDS011;10652;50.306;8.570;2023-08-17T08:42:44;2.17;;;1.10;;
20986;SDS011;10652;50.306;8.570;2023-08-17T08:46:46;1.80;;;1.50;;
20986;SDS011;10652;50.306;8.570;2023-08-17T08:50:49;3.97;;;1.63;;
20986;SDS011;10652;50.306;8.570;2023-08-17T08:54:52;2.50;;;1.55;;
20986;SDS011;10652;50.306;8.570;2023-08-17T08:58:57;2.53;;;1.67;;
20986;SDS011;10652;50.306;8.570;2023-08-17T09:03:01;2.25;;;1.55;;
20986;SDS011;10652;50.306;8.570;2023-08-17T09:07:06;2.15;;;1.30;;
20986;SDS011;10652;50.306;8.570;2023-08-17T09:11:08;1.48;;;1.20;;
20986;SDS011;10652;50.306;8.570;2023-08-17T09:15:11;2.63;;;1.48;;
20986;SDS011;10652;50.306;8.570;2023-08-17T09:19:13;2.83;;;1.63;;
20986;SDS011;10652;50.306;8.570;2023-08-17T09:23:19;2.70;;;1.50;;
20986;SDS011;10652;50.306;8.570;2023-08-17T09:27:23;1.80;;;1.70;;
20986;SDS011;10652;50.306;8.570;2023-08-17T09:31:26;1.95;;;1.40;;
20986;SDS011;10652;50.306;8.570;2023-08-17T09:35:31;1.60;;;1.50;;
20986;SDS011;10652;50.306;8.570;2023-08-17T09:39:33;2.45;;;1.42;;
20986;SDS011;10652;50.306;8.570;2023-08-17T09:43:35;2.15;;;1.38;;
20986;SDS011;10652;50.306;8.570;2023-08-17T09:47:38;1.92;;;1.50;;
20986;SDS011;10652;50.306;8.570;2023-08-17T09:51:43;1.02;;;1.00;;
20986;SDS011;10652;50.306;8.570;2023-08-17T09:55:46;1.63;;;1.30;;
20986;SDS011;10652;50.306;8.570;2023-08-17T09:59:48;1.98;;;1.40;;
20986;SDS011;10652;50.306;8.570;2023-08-17T10:03:56;1.63;;;1.10;;
20986;SDS011;10652;50.306;8.570;2023-08-17T10:08:00;1.60;;;1.40;;
20986;SDS011;10652;50.306;8.570;2023-08-17T10:12:06;1.75;;;1.20;;
20986;SDS011;10652;50.306;8.570;2023-08-17T10:16:19;3.65;;;1.23;;
20986;SDS011;10652;50.306;8.570;2023-08-17T10:20:31;1.42;;;1.33;;
20986;SDS011;10652;50.306;8.570;2023-08-17T10:24:37;2.28;;;1.20;;
20986;SDS011;10652;50.306;8.570;2023-08-17T10:28:40;1.77;;;1.27;;
20986;SDS011;10652;50.306;8.570;2023-08-17T10:32:42;2.15;;;1.20;;
20986;SDS011;10652;50.306;8.570;2023-08-17T10:36:48;1.60;;;1.45;;
20986;SDS011;10652;50.306;8.570;2023-08-17T10:41:07;1.23;;;1.13;;
20986;SDS011;10652;50.306;8.570;2023-08-17T10:45:46;1.20;;;1.10;;
20986;SDS011;10652;50.306;8.570;2023-08-17T10:49:41;1.45;;;1.17;;
20986;SDS011;10652;50.306;8.570;2023-08-17T10:53:44;1.35;;;1.00;;
20986;SDS011;10652;50.306;8.570;2023-08-17T10:57:46;3.78;;;1.20;;
20986;SDS011;10652;50.306;8.570;2023-08-17T11:01:53;3.05;;;1.13;;
20986;SDS011;10652;50.306;8.570;2023-08-17T11:05:55;1.80;;;1.17;;
20986;SDS011;10652;50.306;8.570;2023-08-17T11:09:58;1.45;;;1.02;;
20986;SDS011;10652;50.306;8.570;2023-08-17T11:14:01;1.27;;;1.02;;
20986;SDS011;10652;50.306;8.570;2023-08-17T11:18:06;1.30;;;1.20;;
20986;SDS011;10652;50.306;8.570;2023-08-17T11:22:11;1.05;;;1.05;;
20986;SDS011;10652;50.306;8.570;2023-08-17T11:26:17;1.15;;;0.95;;
20986;SDS011;10652;50.306;8.570;2023-08-17T11:30:20;2.55;;;1.38;;
20986;SDS011;10652;50.306;8.570;2023-08-17T11:34:24;1.85;;;1.17;;
20986;SDS011;10652;50.306;8.570;2023-08-17T11:38:29;3.85;;;1.10;;
20986;SDS011;10652;50.306;8.570;2023-08-17T11:42:36;1.27;;;1.00;;
20986;SDS011;10652;50.306;8.570;2023-08-17T11:46:39;1.50;;;1.00;;
20986;SDS011;10652;50.306;8.570;2023-08-17T11:50:41;3.35;;;1.00;;
20986;SDS011;10652;50.306;8.570;2023-08-17T11:54:43;1.08;;;0.90;;
20986;SDS011;10652;50.306;8.570;2023-08-17T11:58:45;0.80;;;0.80;;
20986;SDS011;10652;50.306;8.570;2023-08-17T12:02:51;1.23;;;1.00;;
20986;SDS011;10652;50.306;8.570;2023-08-17T12:06:54;1.45;;;1.05;;
20986;SDS011;10652;50.306;8.570;2023-08-17T12:10:57;1.15;;;1.05;;
20986;SDS011;10652;50.306;8.570;2023-08-17T12:14:59;1.83;;;0.90;;
20986;SDS011;10652;50.306;8.570;2023-08-17T12:19:01;1.00;;;1.00;;
20986;SDS011;10652;50.306;8.570;2023-08-17T12:23:06;1.63;;;1.00;;
20986;SDS011;10652;50.306;8.570;2023-08-17T12:27:08;1.10;;;1.00;;
20986;SDS011;10652;50.306;8.570;2023-08-17T12:31:10;4.53;;;1.10;;
20986;SDS011;10652;50.306;8.570;2023-08-17T12:35:13;2.03;;;1.10;;
20986;SDS011;10652;50.306;8.570;2023-08-17T12:39:15;2.15;;;1.10;;
20986;SDS011;10652;50.306;8.570;2023-08-17T12:43:17;1.20;;;0.90;;
20986;SDS011;10652;50.306;8.570;2023-08-17T12:47:19;3.13;;;1.00;;
20986;SDS011;10652;50.306;8.570;2023-08-17T12:51:21;1.58;;;1.10;;
20986;SDS011;10652;50.306;8.570;2023-08-17T12:55:23;2.35;;;1.00;;
20986;SDS011;10652;50.306;8.570;2023-08-17T12:59:26;7.47;;;5.53;;
20986;SDS011;10652;50.306;8.570;2023-08-17T13:03:28;12.23;;;7.03;;
20986;SDS011;10652;50.306;8.570;2023-08-17T13:07:30;2.70;;;1.70;;
20986;SDS011;10652;50.306;8.570;2023-08-17T13:11:32;1.50;;;1.40;;
20986;SDS011;10652;50.306;8.570;2023-08-17T13:15:34;2.50;;;1.40;;
20986;SDS011;10652;50.306;8.570;2023-08-17T13:19:36;2.30;;;1.33;;
20986;SDS011;10652;50.306;8.570;2023-08-17T13:23:38;2.03;;;1.50;;
20986;SDS011;10652;50.306;8.570;2023-08-17T13:27:41;2.25;;;1.50;;
20986;SDS011;10652;50.306;8.570;2023-08-17T13:31:43;1.83;;;1.33;;
20986;SDS011;10652;50.306;8.570;2023-08-17T13:35:45;2.25;;;1.40;;
20986;SDS011;10652;50.306;8.570;2023-08-17T13:39:47;1.58;;;1.42;;
20986;SDS011;10652;50.306;8.570;2023-08-17T13:43:49;1.63;;;1.17;;
20986;SDS011;10652;50.306;8.570;2023-08-17T13:47:51;1.63;;;1.30;;
20986;SDS011;10652;50.306;8.570;2023-08-17T13:51:53;3.50;;;1.30;;
20986;SDS011;10652;50.306;8.570;2023-08-17T13:55:55;1.35;;;1.20;;
20986;SDS011;10652;50.306;8.570;2023-08-17T13:59:58;1.58;;;1.13;;
20986;SDS011;10652;50.306;8.570;2023-08-17T14:04:00;1.65;;;1.55;;
20986;SDS011;10652;50.306;8.570;2023-08-17T14:08:05;4.28;;;1.50;;
20986;SDS011;10652;50.306;8.570;2023-08-17T14:12:08;1.67;;;1.10;;
20986;SDS011;10652;50.306;8.570;2023-08-17T14:16:10;1.40;;;1.30;;
20986;SDS011;10652;50.306;8.570;2023-08-17T14:20:12;1.48;;;1.15;;
20986;SDS011;10652;50.306;8.570;2023-08-17T14:24:17;3.17;;;1.63;;
20986;SDS011;10652;50.306;8.570;2023-08-17T14:28:19;1.33;;;1.23;;
20986;SDS011;10652;50.306;8.570;2023-08-17T14:32:21;2.55;;;1.40;;
20986;SDS011;10652;50.306;8.570;2023-08-17T14:36:23;3.55;;;1.52;;
20986;SDS011;10652;50.306;8.570;2023-08-17T14:40:26;3.58;;;1.02;;
20986;SDS011;10652;50.306;8.570;2023-08-17T14:44:28;1.85;;;1.50;;
20986;SDS011;10652;50.306;8.570;2023-08-17T14:48:30;1.20;;;1.10;;
20986;SDS011;10652;50.306;8.570;2023-08-17T14:52:33;2.28;;;1.50;;
20986;SDS011;10652;50.306;8.570;2023-08-17T14:56:35;1.48;;;1.38;;
20986;SDS011;10652;50.306;8.570;2023-08-17T15:00:38;4.20;;;1.13;;
20986;SDS011;10652;50.306;8.570;2023-08-17T15:04:40;2.35;;;1.63;;
20986;SDS011;10652;50.306;8.570;2023-08-17T15:08:42;2.40;;;1.17;;
20986;SDS011;10652;50.306;8.570;2023-08-17T15:12:44;3.20;;;1.58;;
20986;SDS011;10652;50.306;8.570;2023-08-17T15:16:46;1.55;;;1.45;;
20986;SDS011;10652;50.306;8.570;2023-08-17T15:20:49;1.75;;;1.30;;
20986;SDS011;10652;50.306;8.570;2023-08-17T15:24:51;1.52;;;1.30;;
20986;SDS011;10652;50.306;8.570;2023-08-17T15:28:53;2.38;;;1.35;;
20986;SDS011;10652;50.306;8.570;2023-08-17T15:32:55;1.48;;;1.30;;
20986;SDS011;10652;50.306;8.570;2023-08-17T15:36:57;2.05;;;1.35;;
20986;SDS011;10652;50.306;8.570;2023-08-17T15:40:59;2.58;;;1.33;;
20986;SDS011;10652;50.306;8.570;2023-08-17T15:45:01;2.03;;;1.60;;
20986;SDS011;10652;50.306;8.570;2023-08-17T15:49:03;1.27;;;1.17;;
20986;SDS011;10652;50.306;8.570;2023-08-17T15:53:05;3.20;;;1.40;;
20986;SDS011;10652;50.306;8.570;2023-08-17T15:57:10;2.30;;;1.20;;
20986;SDS011;10652;50.306;8.570;2023-08-17T16:01:12;1.40;;;1.30;;
20986;SDS011;10652;50.306;8.570;2023-08-17T16:05:14;3.13;;;1.40;;
20986;SDS011;10652;50.306;8.570;2023-08-17T16:09:16;2.90;;;1.50;;
20986;SDS011;10652;50.306;8.570;2023-08-17T16:13:18;3.50;;;1.40;;
20986;SDS011;10652;50.306;8.570;2023-08-17T16:17:20;1.98;;;1.40;;
20986;SDS011;10652;50.306;8.570;2023-08-17T16:21:22;3.08;;;1.55;;
20986;SDS011;10652;50.306;8.570;2023-08-17T16:25:25;1.35;;;1.08;;
20986;SDS011;10652;50.306;8.570;2023-08-17T16:29:30;2.88;;;1.20;;
20986;SDS011;10652;50.306;8.570;2023-08-17T16:33:32;1.52;;;1.42;;
20986;SDS011;10652;50.306;8.570;2023-08-17T16:37:34;1.30;;;1.20;;
20986;SDS011;10652;50.306;8.570;2023-08-17T16:41:41;1.52;;;1.42;;
20986;SDS011;10652;50.306;8.570;2023-08-17T16:45:43;2.55;;;1.70;;
20986;SDS011;10652;50.306;8.570;2023-08-17T16:49:45;2.05;;;1.42;;
20986;SDS011;10652;50.306;8.570;2023-08-17T16:53:48;2.05;;;1.70;;
20986;SDS011;10652;50.306;8.570;2023-08-17T16:57:51;1.60;;;1.50;;
20986;SDS011;10652;50.306;8.570;2023-08-17T17:01:59;2.17;;;1.58;;
20986;SDS011;10652;50.306;8.570;2023-08-17T17:06:01;2.30;;;1.60;;
20986;SDS011;10652;50.306;8.570;2023-08-17T17:10:03;2.88;;;1.60;;
20986;SDS011;10652;50.306;8.570;2023-08-17T17:14:05;2.45;;;1.58;;
20986;SDS011;10652;50.306;8.570;2023-08-17T17:18:07;3.22;;;1.27;;
20986;SDS011;10652;50.306;8.570;2023-08-17T17:22:10;2.42;;;1.40;;
20986;SDS011;10652;50.306;8.570;2023-08-17T17:26:12;1.50;;;1.40;;
20986;SDS011;10652;50.306;8.570;2023-08-17T17:30:15;1.92;;;1.60;;
20986;SDS011;10652;50.306;8.570;2023-08-17T17:34:17;1.75;;;1.63;;
20986;SDS011;10652;50.306;8.570;2023-08-17T17:38:20;1.73;;;1.50;;
20986;SDS011;10652;50.306;8.570;2023-08-17T17:42:22;2.75;;;1.50;;
20986;SDS011;10652;50.306;8.570;2023-08-17T17:46:24;1.95;;;1.60;;
20986;SDS011;10652;50.306;8.570;2023-08-17T17:50:26;1.52;;;1.42;;
20986;SDS011;10652;50.306;8.570;2023-08-17T17:54:29;2.80;;;1.90;;
20986;SDS011;10652;50.306;8.570;2023-08-17T17:58:31;2.38;;;1.80;;
20986;SDS011;10652;50.306;8.570;2023-08-17T18:02:34;1.65;;;1.55;;
20986;SDS011;10652;50.306;8.570;2023-08-17T18:06:37;2.80;;;1.35;;
20986;SDS011;10652;50.306;8.570;2023-08-17T18:10:40;1.58;;;1.48;;
20986;SDS011;10652;50.306;8.570;2023-08-17T18:14:43;2.40;;;1.50;;
20986;SDS011;10652;50.306;8.570;2023-08-17T18:18:46;3.55;;;1.50;;
20986;SDS011;10652;50.306;8.570;2023-08-17T18:22:49;1.58;;;1.35;;
20986;SDS011;10652;50.306;8.570;2023-08-17T18:26:51;2.00;;;1.60;;
20986;SDS011;10652;50.306;8.570;2023-08-17T18:30:53;2.85;;;1.55;;
20986;SDS011;10652;50.306;8.570;2023-08-17T18:34:56;2.45;;;1.70;;
20986;SDS011;10652;50.306;8.570;2023-08-17T18:38:58;1.80;;;1.70;;
20986;SDS011;10652;50.306;8.570;2023-08-17T18:43:00;2.53;;;1.50;;
20986;SDS011;10652;50.306;8.570;2023-08-17T18:47:02;3.05;;;1.58;;
20986;SDS011;10652;50.306;8.570;2023-08-17T18:51:04;3.00;;;1.75;;
20986;SDS011;10652;50.306;8.570;2023-08-17T18:55:06;3.03;;;2.00;;
20986;SDS011;10652;50.306;8.570;2023-08-17T18:59:13;3.00;;;1.77;;
20986;SDS011;10652;50.306;8.570;2023-08-17T19:03:15;1.88;;;1.77;;
20986;SDS011;10652;50.306;8.570;2023-08-17T19:07:17;1.92;;;1.77;;
20986;SDS011;10652;50.306;8.570;2023-08-17T19:11:19;2.15;;;1.98;;
20986;SDS011;10652;50.306;8.570;2023-08-17T19:15:21;2.28;;;1.80;;
20986;SDS011;10652;50.306;8.570;2023-08-17T19:19:24;2.22;;;1.98;;
20986;SDS011;10652;50.306;8.570;2023-08-17T19:23:26;5.53;;;2.08;;
20986;SDS011;10652;50.306;8.570;2023-08-17T19:27:28;2.63;;;1.95;;
20986;SDS011;10652;50.306;8.570;2023-08-17T19:31:31;2.58;;;2.10;;
20986;SDS011;10652;50.306;8.570;2023-08-17T19:35:33;4.32;;;2.05;;
20986;SDS011;10652;50.306;8.570;2023-08-17T19:39:36;2.60;;;2.08;;
20986;SDS011;10652;50.306;8.570;2023-08-17T19:43:38;2.97;;;2.13;;
20986;SDS011;10652;50.306;8.570;2023-08-17T19:47:40;3.67;;;2.00;;
20986;SDS011;10652;50.306;8.570;2023-08-17T19:51:42;3.83;;;2.25;;
20986;SDS011;10652;50.306;8.570;2023-08-17T19:55:47;3.38;;;2.50;;
20986;SDS011;10652;50.306;8.570;2023-08-17T19:59:50;3.97;;;2.30;;
20986;SDS011;10652;50.306;8.570;2023-08-17T20:03:52;2.00;;;1.80;;
20986;SDS011;10652;50.306;8.570;2023-08-17T20:07:55;2.38;;;1.90;;
20986;SDS011;10652;50.306;8.570;2023-08-17T20:11:57;2.88;;;1.75;;
20986;SDS011;10652;50.306;8.570;2023-08-17T20:15:59;2.33;;;1.90;;
20986;SDS011;10652;50.306;8.570;2023-08-17T20:20:02;2.65;;;2.08;;
20986;SDS011;10652;50.306;8.570;2023-08-17T20:24:04;3.42;;;2.75;;
20986;SDS011;10652;50.306;8.570;2023-08-17T20:28:07;6.32;;;2.67;;
20986;SDS011;10652;50.306;8.570;2023-08-17T20:32:09;4.93;;;2.28;;
20986;SDS011;10652;50.306;8.570;2023-08-17T20:36:11;7.72;;;2.33;;
20986;SDS011;10652;50.306;8.570;2023-08-17T20:40:14;4.40;;;2.25;;
20986;SDS011;10652;50.306;8.570;2023-08-17T20:44:16;4.85;;;2.40;;
20986;SDS011;10652;50.306;8.570;2023-08-17T20:48:19;3.28;;;2.25;;
20986;SDS011;10652;50.306;8.570;2023-08-17T20:52:21;3.85;;;2.60;;
20986;SDS011;10652;50.306;8.570;2023-08-17T20:56:23;3.72;;;2.65;;
20986;SDS011;10652;50.306;8.570;2023-08-17T21:00:26;3.13;;;2.47;;
20986;SDS011;10652;50.306;8.570;2023-08-17T21:04:28;2.72;;;2.30;;
20986;SDS011;10652;50.306;8.570;2023-08-17T21:08:30;2.63;;;2.42;;
20986;SDS011;10652;50.306;8.570;2023-08-17T21:12:33;4.70;;;3.58;;
20986;SDS011;10652;50.306;8.570;2023-08-17T21:16:35;6.90;;;2.75;;
20986;SDS011;10652;50.306;8.570;2023-08-17T21:20:40;3.35;;;3.00;;
20986;SDS011;10652;50.306;8.570;2023-08-17T21:24:42;4.68;;;2.50;;
20986;SDS011;10652;50.306;8.570;2023-08-17T21:28:44;5.53;;;2.67;;
20986;SDS011;10652;50.306;8.570;2023-08-17T21:32:46;8.00;;;2.58;;
20986;SDS011;10652;50.306;8.570;2023-08-17T21:36:48;3.35;;;2.40;;
20986;SDS011;10652;50.306;8.570;2023-08-17T21:40:55;5.18;;;2.60;;
20986;SDS011;10652;50.306;8.570;2023-08-17T21:44:59;3.38;;;2.70;;
20986;SDS011;10652;50.306;8.570;2023-08-17T21:49:01;3.05;;;2.65;;
20986;SDS011;10652;50.306;8.570;2023-08-17T21:53:03;6.35;;;2.70;;
20986;SDS011;10652;50.306;8.570;2023-08-17T21:57:06;3.38;;;2.50;;
20986;SDS011;10652;50.306;8.570;2023-08-17T22:01:08;3.28;;;2.63;;
20986;SDS011;10652;50.306;8.570;2023-08-17T22:05:10;3.60;;;2.80;;
20986;SDS011;10652;50.306;8.570;2023-08-17T22:09:12;5.78;;;2.63;;
20986;SDS011;10652;50.306;8.570;2023-08-17T22:13:14;3.15;;;2.80;;
20986;SDS011;10652;50.306;8.570;2023-08-17T22:17:16;3.50;;;2.45;;
20986;SDS011;10652;50.306;8.570;2023-08-17T22:21:18;5.80;;;3.15;;
20986;SDS011;10652;50.306;8.570;2023-08-17T22:25:20;7.57;;;2.58;;
20986;SDS011;10652;50.306;8.570;2023-08-17T22:29:23;3.58;;;2.85;;
20986;SDS011;10652;50.306;8.570;2023-08-17T22:33:25;4.05;;;2.65;;
20986;SDS011;10652;50.306;8.570;2023-08-17T22:37:28;3.50;;;2.88;;
20986;SDS011;10652;50.306;8.570;2023-08-17T22:41:30;3.78;;;2.20;;
20986;SDS011;10652;50.306;8.570;2023-08-17T22:45:32;4.45;;;2.25;;
20986;SDS011;10652;50.306;8.570;2023-08-17T22:49:34;3.92;;;2.42;;
20986;SDS011;10652;50.306;8.570;2023-08-17T22:53:36;3.30;;;2.28;;
20986;SDS011;10652;50.306;8.570;2023-08-17T22:57:38;3.10;;;2.47;;
20986;SDS011;10652;50.306;8.570;2023-08-17T23:01:41;2.58;;;2.30;;
20986;SDS011;10652;50.306;8.570;2023-08-17T23:05:43;5.80;;;2.85;;
20986;SDS011;10652;50.306;8.570;2023-08-17T23:09:46;4.13;;;2.90;;
20986;SDS011;10652;50.306;8.570;2023-08-17T23:13:48;5.13;;;2.72;;
20986;SDS011;10652;50.306;8.570;2023-08-17T23:17:50;5.47;;;2.50;;
20986;SDS011;10652;50.306;8.570;2023-08-17T23:21:53;5.38;;;3.50;;
20986;SDS011;10652;50.306;8.570;2023-08-17T23:25:55;4.60;;;2.83;;
20986;SDS011;10652;50.306;8.570;2023-08-17T23:29:57;6.18;;;3.10;;
20986;SDS011;10652;50.306;8.570;2023-08-17T23:33:59;2.97;;;2.70;;
20986;SDS011;10652;50.306;8.570;2023-08-17T23:38:01;3.95;;;2.55;;
20986;SDS011;10652;50.306;8.570;2023-08-17T23:42:03;4.78;;;2.72;;
20986;SDS011;10652;50.306;8.570;2023-08-17T23:46:06;4.10;;;2.65;;
20986;SDS011;10652;50.306;8.570;2023-08-17T23:50:09;3.50;;;2.50;;
20986;SDS011;10652;50.306;8.570;2023-08-17T23:54:11;3.38;;;2.60;;
20986;SDS011;10652;50.306;8.570;2023-08-17T23:58:13;6.70;;;2.63;;
